Time;durP1;ratioP1;P1;durP2;ratioP2;P2;SDS_P1;SDS_P2;PMS_P1;PMS_P2;Temp;Humidity;BMP_temperature;BMP_pressure;BME280_temperature;BME280_humidity;BME280_pressure;Samples;Min_cycle;Max_cycle;Signal;HPM_P1;HPM_P2
2023/07/23 00:01:15;;;;;;;7.10;4.65;;;;;;;18.70;62.61;99274.72;4990097;28;20114;-81
2023/07/23 00:03:41;;;;;;;9.60;4.82;;;;;;;18.71;62.65;99273.72;4989605;28;20058;-81
2023/07/23 00:06:08;;;;;;;7.35;4.63;;;;;;;18.71;62.58;99271.06;4989859;28;20108;-81
2023/07/23 00:08:34;;;;;;;6.82;4.97;;;;;;;18.71;62.44;99267.56;4990009;28;20134;-81
2023/07/23 00:11:01;;;;;;;6.38;4.30;;;;;;;18.71;62.29;99264.88;4990003;28;20113;-81
2023/07/23 00:13:27;;;;;;;8.15;4.80;;;;;;;18.70;62.47;99264.06;4990315;28;20050;-81
2023/07/23 00:15:54;;;;;;;7.60;5.10;;;;;;;18.70;62.32;99265.88;4989687;28;20145;-81
2023/07/23 00:18:20;;;;;;;7.15;4.72;;;;;;;18.70;62.34;99258.72;4989951;28;20072;-81
2023/07/23 00:20:47;;;;;;;8.48;5.50;;;;;;;18.69;62.75;99253.56;4990141;28;20054;-81
2023/07/23 00:23:13;;;;;;;8.57;5.20;;;;;;;18.68;62.30;99249.19;4989618;28;20058;-81
2023/07/23 00:25:40;;;;;;;6.18;4.57;;;;;;;18.67;62.28;99247.53;4988467;28;20134;-81
2023/07/23 00:28:07;;;;;;;8.43;5.45;;;;;;;18.67;62.83;99244.84;4989856;28;20042;-81
2023/07/23 00:30:34;;;;;;;7.35;5.55;;;;;;;18.65;62.95;99245.00;4988670;28;20058;-81
2023/07/23 00:33:01;;;;;;;8.25;5.38;;;;;;;18.64;62.95;99242.50;4989269;28;20085;-81
2023/07/23 00:35:27;;;;;;;9.68;5.53;;;;;;;18.63;62.92;99236.34;4992000;28;20054;-80
2023/07/23 00:37:54;;;;;;;8.48;5.40;;;;;;;18.62;62.66;99237.34;4991708;28;20493;-81
2023/07/23 00:40:20;;;;;;;8.98;5.32;;;;;;;18.61;62.79;99228.50;4993386;28;20141;-81
2023/07/23 00:42:46;;;;;;;8.57;5.32;;;;;;;18.60;62.83;99231.31;4991813;28;20046;-81
2023/07/23 00:45:13;;;;;;;7.25;4.90;;;;;;;18.59;62.70;99225.16;4993045;28;20054;-81
2023/07/23 00:47:39;;;;;;;8.25;5.70;;;;;;;18.58;62.80;99225.31;4993088;28;20047;-81
2023/07/23 00:50:06;;;;;;;9.20;5.45;;;;;;;18.56;62.89;99222.78;4993183;28;20054;-81
2023/07/23 00:52:33;;;;;;;8.80;5.68;;;;;;;18.56;63.04;99217.44;4992662;28;20050;-81
2023/07/23 00:55:00;;;;;;;8.35;5.57;;;;;;;18.55;63.30;99207.78;4992745;28;20060;-80
2023/07/23 00:57:26;;;;;;;7.97;6.00;;;;;;;18.54;63.15;99211.41;4992940;28;20046;-81
2023/07/23 00:59:56;;;;;;;9.02;5.95;;;;;;;18.54;63.45;99218.59;4993013;28;20050;-81
2023/07/23 01:02:25;;;;;;;8.48;5.85;;;;;;;18.52;63.52;99212.56;4992830;28;20121;-82
2023/07/23 01:04:53;;;;;;;8.90;5.68;;;;;;;18.53;63.01;99211.56;4992072;28;20552;-82
2023/07/23 01:07:21;;;;;;;10.55;5.70;;;;;;;18.52;63.16;99204.56;4992914;28;20072;-81
2023/07/23 01:09:49;;;;;;;7.03;5.40;;;;;;;18.49;63.73;99203.91;4992755;28;20073;-82
2023/07/23 01:12:17;;;;;;;8.65;5.32;;;;;;;18.49;63.27;99200.38;4992619;28;20050;-81
2023/07/23 01:14:44;;;;;;;9.98;5.82;;;;;;;18.48;63.15;99194.25;4990970;28;20511;-81
2023/07/23 01:17:12;;;;;;;7.15;4.82;;;;;;;18.48;63.08;99191.56;4992392;28;20492;-81
2023/07/23 01:19:38;;;;;;;10.38;5.13;;;;;;;18.48;63.39;99185.41;4992497;28;20077;-81
2023/07/23 01:22:05;;;;;;;8.48;5.60;;;;;;;18.48;63.05;99178.25;4992522;28;20504;-80
2023/07/23 01:24:34;;;;;;;7.85;4.80;;;;;;;18.47;63.17;99184.53;4991737;28;20054;-81
2023/07/23 01:27:04;;;;;;;9.10;6.03;;;;;;;18.47;63.34;99175.72;4991883;28;20050;-81
2023/07/23 01:29:30;;;;;;;7.40;5.35;;;;;;;18.45;63.00;99169.72;4992492;28;20056;-81
2023/07/23 01:31:57;;;;;;;8.35;5.60;;;;;;;18.44;63.04;99163.56;4992305;28;20148;-81
2023/07/23 01:34:24;;;;;;;6.57;5.38;;;;;;;18.41;63.36;99149.69;4991947;28;20129;-81
2023/07/23 01:36:52;;;;;;;6.75;5.07;;;;;;;18.40;63.22;99156.84;4992139;28;20113;-81
2023/07/23 01:39:18;;;;;;;11.68;5.10;;;;;;;18.40;63.57;99140.03;4992318;28;20145;-82
2023/07/23 01:41:45;;;;;;;11.07;5.13;;;;;;;18.41;63.37;99147.03;4992046;28;20424;-81
2023/07/23 01:44:12;;;;;;;7.45;5.57;;;;;;;18.41;63.30;99141.69;4991635;28;20054;-81
2023/07/23 01:46:38;;;;;;;11.18;5.25;;;;;;;18.43;63.68;99135.22;4991811;28;20424;-81
2023/07/23 01:49:05;;;;;;;7.70;5.30;;;;;;;18.41;63.76;99125.69;4992319;28;20050;-81
2023/07/23 01:51:31;;;;;;;8.07;5.15;;;;;;;18.42;63.50;99128.22;4992052;28;20150;-81
2023/07/23 01:53:58;;;;;;;8.02;5.43;;;;;;;18.45;63.54;99129.72;4990514;28;20137;-81
2023/07/23 01:56:24;;;;;;;8.23;5.47;;;;;;;18.44;63.52;99125.41;4992378;28;20058;-81
2023/07/23 01:58:51;;;;;;;7.95;5.22;;;;;;;18.45;63.67;99119.94;4991638;28;20046;-81
2023/07/23 02:01:17;;;;;;;9.23;5.28;;;;;;;18.45;63.92;99114.59;4991719;28;20523;-82
2023/07/23 02:03:44;;;;;;;8.13;5.45;;;;;;;18.46;63.41;99121.59;4991812;28;20055;-81
2023/07/23 02:06:10;;;;;;;9.32;5.88;;;;;;;18.46;63.71;99110.06;4991491;28;20054;-81
2023/07/23 02:08:37;;;;;;;9.90;5.03;;;;;;;18.47;63.77;99111.78;4991507;28;20481;-81
2023/07/23 02:11:03;;;;;;;8.25;5.43;;;;;;;18.47;63.72;99109.13;4991710;28;20046;-82
2023/07/23 02:13:29;;;;;;;8.73;5.50;;;;;;;18.48;63.60;99110.78;4991383;28;20061;-82
2023/07/23 02:15:56;;;;;;;8.15;5.40;;;;;;;18.49;63.65;99099.97;4989878;28;20076;-81
2023/07/23 02:18:22;;;;;;;7.38;5.80;;;;;;;18.51;63.62;99105.16;4990148;28;20161;-81
2023/07/23 02:20:49;;;;;;;7.90;5.60;;;;;;;18.52;63.77;99101.47;4991557;28;20054;-81
2023/07/23 02:23:19;;;;;;;8.60;5.78;;;;;;;18.53;63.37;99094.31;4991250;28;20054;-82
2023/07/23 02:25:49;;;;;;;11.23;5.53;;;;;;;18.52;63.94;99096.16;4991310;28;20143;-82
2023/07/23 02:28:16;;;;;;;10.18;5.50;;;;;;;18.53;63.57;99081.81;4991228;28;20054;-82
2023/07/23 02:30:42;;;;;;;8.20;5.05;;;;;;;18.54;63.43;99083.50;4989946;28;20053;-82
2023/07/23 02:33:09;;;;;;;10.52;5.47;;;;;;;18.54;63.62;99078.16;4989990;28;20120;-82
2023/07/23 02:35:36;;;;;;;8.10;5.10;;;;;;;18.55;63.52;99079.00;4990949;28;20145;-82
2023/07/23 02:38:03;;;;;;;11.85;5.10;;;;;;;18.53;63.49;99073.84;4990954;28;20077;-82
2023/07/23 02:40:33;;;;;;;9.48;5.53;;;;;;;18.53;63.68;99076.50;4989832;28;20137;-82
2023/07/23 02:43:01;;;;;;;10.07;5.28;;;;;;;18.54;63.49;99078.16;4989583;28;20046;-82
2023/07/23 02:45:31;;;;;;;9.20;5.40;;;;;;;18.53;63.31;99071.16;4989267;28;20054;-82
2023/07/23 02:47:58;;;;;;;9.48;5.43;;;;;;;18.55;63.79;99071.88;4989631;28;20136;-82
2023/07/23 02:50:25;;;;;;;8.93;5.70;;;;;;;18.54;63.28;99064.84;4991069;28;20057;-82
2023/07/23 02:52:52;;;;;;;10.68;5.50;;;;;;;18.53;63.37;99065.84;4990745;28;20509;-82
2023/07/23 02:55:19;;;;;;;7.75;5.28;;;;;;;18.52;63.39;99060.66;4988770;28;20394;-82
2023/07/23 02:57:46;;;;;;;9.55;5.28;;;;;;;18.52;63.38;99050.84;4989353;28;20390;-82
2023/07/23 03:00:13;;;;;;;6.40;4.75;;;;;;;18.51;63.45;99054.50;4989790;28;20082;-82
2023/07/23 03:02:39;;;;;;;7.72;5.65;;;;;;;18.53;63.31;99049.00;4991008;28;20090;-82
2023/07/23 03:05:07;;;;;;;6.60;4.63;;;;;;;18.52;63.24;99048.19;4989730;28;20124;-82
2023/07/23 03:07:34;;;;;;;8.00;4.80;;;;;;;18.52;63.43;99045.53;4991405;28;20463;-81
2023/07/23 03:10:01;;;;;;;10.15;5.82;;;;;;;18.51;63.36;99041.19;4990514;28;20058;-82
2023/07/23 03:12:27;;;;;;;8.55;6.05;;;;;;;18.52;63.73;99037.53;4989683;28;20058;-82
2023/07/23 03:14:53;;;;;;;9.55;5.45;;;;;;;18.52;63.45;99037.53;5113913;22;20837;-83
2023/07/23 03:17:20;;;;;;;9.20;5.35;;;;;;;18.51;62.96;99027.88;4990985;28;20109;-83
2023/07/23 03:19:47;;;;;;;7.47;5.35;;;;;;;18.51;63.37;99027.88;4990503;28;20100;-83
2023/07/23 03:22:13;;;;;;;7.85;5.30;;;;;;;18.51;63.22;99014.53;4989783;28;20441;-83
2023/07/23 03:24:40;;;;;;;8.20;5.85;;;;;;;18.51;63.51;99016.34;4989558;28;20089;-83
2023/07/23 03:27:07;;;;;;;7.28;4.97;;;;;;;18.50;63.12;99012.84;4989656;28;20093;-83
2023/07/23 03:29:33;;;;;;;10.45;4.88;;;;;;;18.51;63.29;99003.88;4990775;28;20148;-83
2023/07/23 03:32:00;;;;;;;6.53;4.75;;;;;;;18.52;63.14;99010.03;4991005;28;20125;-83
2023/07/23 03:34:26;;;;;;;7.65;5.05;;;;;;;18.51;63.05;98995.03;4990813;28;20145;-83
2023/07/23 03:36:53;;;;;;;6.05;5.22;;;;;;;18.50;63.06;99002.19;4990544;28;20101;-82
2023/07/23 03:39:20;;;;;;;7.35;4.70;;;;;;;18.49;63.09;98997.84;4989340;28;20105;-82
2023/07/23 03:41:47;;;;;;;10.00;5.13;;;;;;;18.49;63.17;98997.84;4989375;28;20054;-82
2023/07/23 03:44:14;;;;;;;8.00;5.00;;;;;;;18.49;63.43;98995.19;4990796;28;20054;-83
2023/07/23 03:47:18;;;;;;;10.88;5.18;;;;;;;18.44;63.61;98992.16;4989397;28;20125;-83
2023/07/23 03:49:46;;;;;;;8.85;5.35;;;;;;;18.49;62.99;98989.88;4990729;28;20058;-83
2023/07/23 03:52:13;;;;;;;7.97;5.10;;;;;;;18.48;63.12;98983.72;4989115;28;20050;-82
2023/07/23 03:54:40;;;;;;;5.05;4.20;;;;;;;18.48;63.12;98983.72;4989534;28;20111;-83
2023/07/23 03:57:07;;;;;;;8.50;4.97;;;;;;;18.48;62.90;98983.72;4989304;28;20051;-83
2023/07/23 03:59:38;;;;;;;6.50;5.15;;;;;;;18.48;63.41;98977.53;4990639;28;20046;-82
2023/07/23 04:02:06;;;;;;;6.88;4.88;;;;;;;18.49;63.34;98982.72;4990459;28;20121;-82
2023/07/23 04:04:33;;;;;;;8.52;5.20;;;;;;;18.49;63.14;98971.22;4990547;28;20054;-83
2023/07/23 04:07:00;;;;;;;9.32;5.30;;;;;;;18.50;63.17;98970.22;4990690;28;20058;-83
2023/07/23 04:09:27;;;;;;;7.28;4.78;;;;;;;18.50;63.03;98975.53;4992472;28;20061;-83
2023/07/23 04:11:53;;;;;;;7.45;4.82;;;;;;;18.51;62.86;98971.91;4992794;28;20468;-83
2023/07/23 04:14:20;;;;;;;9.68;5.40;;;;;;;18.51;63.15;98974.56;4993754;28;20424;-83
2023/07/23 04:16:48;;;;;;;8.38;5.03;;;;;;;18.52;62.88;98968.22;4993404;28;20498;-83
2023/07/23 04:19:15;;;;;;;6.53;4.65;;;;;;;18.54;62.73;98963.56;4994280;28;20054;-83
2023/07/23 04:21:42;;;;;;;7.65;5.00;;;;;;;18.55;62.59;98962.59;4993612;28;20132;-82
2023/07/23 04:24:08;;;;;;;9.35;4.80;;;;;;;18.56;62.51;98955.41;4993829;28;20527;-82
2023/07/23 04:26:35;;;;;;;7.25;4.53;;;;;;;18.57;62.84;98957.94;4993697;28;20108;-83
2023/07/23 04:29:02;;;;;;;7.70;4.63;;;;;;;18.57;62.74;98963.25;4993878;28;20472;-83
2023/07/23 04:31:28;;;;;;;6.45;4.68;;;;;;;18.58;62.81;98962.25;4993809;28;20086;-82
2023/07/23 04:33:55;;;;;;;7.00;4.78;;;;;;;18.61;62.71;98961.09;4993745;28;20493;-83
2023/07/23 04:36:22;;;;;;;7.90;4.95;;;;;;;18.61;62.73;98955.75;4993621;28;20061;-83
2023/07/23 04:38:49;;;;;;;10.30;5.35;;;;;;;18.60;62.52;98954.94;4993515;28;20046;-83
2023/07/23 04:41:16;;;;;;;7.22;5.25;;;;;;;18.62;62.62;98957.47;4993508;28;20085;-83
2023/07/23 04:43:42;;;;;;;7.70;5.25;;;;;;;18.62;62.36;98947.63;4992350;28;20468;-83
2023/07/23 04:46:09;;;;;;;8.77;4.93;;;;;;;18.62;62.54;98942.28;4993352;28;20070;-83
2023/07/23 04:48:37;;;;;;;7.25;5.15;;;;;;;18.64;62.50;98936.78;4992278;28;20058;-83
2023/07/23 04:51:05;;;;;;;7.97;5.00;;;;;;;18.65;62.47;98938.47;4993453;28;20050;-83
2023/07/23 04:53:32;;;;;;;6.30;4.63;;;;;;;18.67;62.27;98936.50;4993652;28;20054;-83
2023/07/23 04:56:00;;;;;;;9.13;4.75;;;;;;;18.69;62.43;98939.00;4992599;28;20058;-83
2023/07/23 04:58:27;;;;;;;6.43;5.00;;;;;;;18.71;62.66;98937.00;4991905;28;20145;-83
2023/07/23 05:00:54;;;;;;;8.15;4.75;;;;;;;18.72;62.18;98936.84;4990396;28;20058;-83
2023/07/23 05:03:21;;;;;;;6.28;4.80;;;;;;;18.73;62.28;98930.50;4993433;28;20057;-83
2023/07/23 05:05:49;;;;;;;6.95;4.50;;;;;;;18.74;62.56;98939.34;4993085;28;20114;-83
2023/07/23 05:08:17;;;;;;;6.97;4.70;;;;;;;18.77;62.46;98941.69;4992017;28;20062;-83
2023/07/23 05:10:44;;;;;;;6.70;4.80;;;;;;;18.78;62.48;98931.84;4993306;28;20050;-83
2023/07/23 05:13:12;;;;;;;6.55;4.30;;;;;;;18.81;62.27;98926.19;4993513;28;20469;-83
2023/07/23 05:15:39;;;;;;;5.65;4.28;;;;;;;18.82;62.60;98923.38;4992925;28;20124;-83
2023/07/23 05:18:05;;;;;;;8.38;4.45;;;;;;;18.85;62.51;98923.06;4993020;28;20424;-83
2023/07/23 05:20:32;;;;;;;5.93;3.95;;;;;;;18.87;62.35;98918.38;4992221;28;20130;-84
2023/07/23 05:22:58;;;;;;;7.75;5.15;;;;;;;18.91;62.02;98920.75;4991679;28;20046;-83
2023/07/23 05:25:25;;;;;;;11.45;5.25;;;;;;;18.93;62.15;98916.91;4992749;28;20058;-83
2023/07/23 05:27:52;;;;;;;6.32;4.50;;;;;;;18.96;61.92;98921.06;4992625;28;20085;-83
2023/07/23 05:30:18;;;;;;;5.75;4.45;;;;;;;18.99;62.13;98910.09;4992756;28;20125;-83
2023/07/23 05:32:45;;;;;;;6.93;4.78;;;;;;;19.01;62.19;98913.41;4991413;28;20121;-83
2023/07/23 05:35:12;;;;;;;8.57;4.82;;;;;;;19.01;62.01;98908.94;4992587;28;20531;-84
2023/07/23 05:37:39;;;;;;;16.02;4.80;;;;;;;19.05;61.76;98906.78;4992541;28;20500;-83
2023/07/23 05:40:07;;;;;;;8.13;4.70;;;;;;;19.06;61.75;98902.31;4992261;28;20800;-83
2023/07/23 05:42:33;;;;;;;8.82;5.13;;;;;;;19.10;61.72;98907.13;4992108;28;20062;-83
2023/07/23 05:45:00;;;;;;;7.25;4.63;;;;;;;19.14;61.98;98905.81;5007343;22;20780;-78
2023/07/23 05:47:26;;;;;;;8.52;4.43;;;;;;;19.18;61.81;98903.66;5031780;28;20053;-77
2023/07/23 05:49:53;;;;;;;6.00;4.82;;;;;;;19.21;61.92;98891.81;5031841;28;20072;-76
2023/07/23 05:52:20;;;;;;;5.38;4.53;;;;;;;19.24;61.36;98903.00;5030910;28;20045;-77
2023/07/23 05:54:46;;;;;;;6.55;4.35;;;;;;;19.26;61.11;98898.31;5031736;28;20045;-77
2023/07/23 05:57:13;;;;;;;7.00;4.55;;;;;;;19.29;60.92;98889.16;5032033;28;20057;-79
2023/07/23 05:59:40;;;;;;;6.57;4.70;;;;;;;19.30;61.08;98896.16;5031766;28;20505;-77
2023/07/23 06:02:06;;;;;;;7.32;4.93;;;;;;;19.32;60.67;98896.81;5018100;28;20080;-77
2023/07/23 06:04:33;;;;;;;8.38;4.43;;;;;;;19.34;61.00;98892.16;5011900;28;20052;-78
2023/07/23 06:07:00;;;;;;;5.72;4.50;;;;;;;19.35;60.98;98884.97;5011887;28;20065;-79
2023/07/23 06:09:26;;;;;;;7.47;4.68;;;;;;;19.37;60.79;98891.81;5011639;28;20487;-78
2023/07/23 06:11:53;;;;;;;7.15;4.78;;;;;;;19.38;60.92;98872.16;5020759;28;20065;-79
2023/07/23 06:14:20;;;;;;;9.90;5.13;;;;;;;19.40;60.85;98878.16;5031501;28;20068;-79
2023/07/23 06:16:47;;;;;;;9.20;4.68;;;;;;;19.44;60.73;98873.28;5031000;28;20049;-77
2023/07/23 06:19:13;;;;;;;9.95;5.20;;;;;;;19.46;60.48;98883.81;5031212;28;20089;-78
2023/07/23 06:21:40;;;;;;;7.13;4.88;;;;;;;19.49;60.92;98880.81;5029572;28;20048;-79
2023/07/23 06:24:07;;;;;;;13.88;5.18;;;;;;;19.51;60.57;98886.84;5023261;28;20053;-78
2023/07/23 06:26:33;;;;;;;7.68;4.60;;;;;;;19.53;60.69;98885.66;5010216;28;20145;-78
2023/07/23 06:29:00;;;;;;;7.60;4.50;;;;;;;19.57;60.60;98891.50;5011544;28;20058;-78
2023/07/23 06:31:27;;;;;;;6.95;4.32;;;;;;;19.60;60.84;98880.50;5010919;28;20046;-77
2023/07/23 06:33:54;;;;;;;5.97;4.45;;;;;;;19.64;60.28;98876.47;5031037;28;20049;-77
2023/07/23 06:36:20;;;;;;;6.88;4.60;;;;;;;19.69;60.46;98877.81;5031015;28;20084;-78
2023/07/23 06:38:47;;;;;;;8.02;4.40;;;;;;;19.73;60.67;98871.13;5031099;28;20053;-77
2023/07/23 06:41:14;;;;;;;8.38;4.75;;;;;;;19.78;60.27;98871.44;5028060;28;20038;-78
2023/07/23 06:43:42;;;;;;;6.43;5.05;;;;;;;19.82;60.16;98877.28;5030706;28;20053;-78
2023/07/23 06:46:16;;;;;;;6.75;4.20;;;;;;;19.86;60.36;98876.78;5030899;28;20061;-77
2023/07/23 06:48:43;;;;;;;7.93;4.80;;;;;;;19.89;60.62;98871.06;5030921;28;20478;-78
2023/07/23 06:51:10;;;;;;;9.05;4.80;;;;;;;19.95;60.47;98882.13;5030931;28;20072;-77
2023/07/23 06:53:36;;;;;;;4.82;4.32;;;;;;;19.98;60.13;98874.63;5010154;28;20054;-78
2023/07/23 06:56:04;;;;;;;8.77;4.68;;;;;;;20.02;60.43;98886.63;5011098;28;20073;-78
2023/07/23 06:58:40;;;;;;;6.47;4.80;;;;;;;20.05;60.21;98883.63;5011098;28;20057;-78
2023/07/23 07:01:08;;;;;;;6.22;4.47;;;;;;;20.14;59.98;98884.41;5009981;28;20052;-78
2023/07/23 07:03:35;;;;;;;6.75;4.85;;;;;;;20.19;59.94;98886.59;5026319;28;20763;-78
2023/07/23 07:06:03;;;;;;;5.38;4.45;;;;;;;20.24;59.57;98880.72;5030611;28;20421;-78
2023/07/23 07:08:31;;;;;;;8.00;5.07;;;;;;;20.29;59.67;98876.53;5030743;28;20060;-79
2023/07/23 07:10:59;;;;;;;5.53;4.22;;;;;;;20.35;59.96;98883.00;5030761;28;20049;-79
2023/07/23 07:13:28;;;;;;;7.43;4.93;;;;;;;20.38;59.29;98872.00;5028756;28;20136;-78
2023/07/23 07:15:54;;;;;;;8.05;4.65;;;;;;;20.44;59.17;98879.31;5028730;28;20061;-78
2023/07/23 07:18:21;;;;;;;6.47;4.90;;;;;;;20.50;59.33;98879.59;5030368;28;20514;-78
2023/07/23 07:20:59;;;;;;;9.93;5.10;;;;;;;20.51;58.37;98881.25;5030513;28;20138;-79
2023/07/23 07:23:27;;;;;;;9.93;4.63;;;;;;;20.56;58.77;98874.41;5020121;28;20124;-79
2023/07/23 07:25:55;;;;;;;6.55;4.72;;;;;;;20.63;58.92;98877.19;5009230;28;20104;-78
2023/07/23 07:28:24;;;;;;;6.85;4.57;;;;;;;20.68;58.70;98879.38;5010658;28;20049;-77
2023/07/23 07:30:51;;;;;;;8.45;4.78;;;;;;;20.74;58.65;98883.19;5010699;28;20729;-78
2023/07/23 07:33:18;;;;;;;10.45;4.78;;;;;;;20.81;58.58;98876.09;5015763;28;20402;-79
2023/07/23 07:35:45;;;;;;;6.95;4.65;;;;;;;20.87;58.53;98875.44;5030439;28;20049;-79
2023/07/23 07:38:12;;;;;;;5.60;4.55;;;;;;;20.94;58.31;98876.38;5030256;28;20103;-79
2023/07/23 07:40:39;;;;;;;10.88;4.35;;;;;;;21.00;58.26;98874.03;5030387;28;20664;-79
2023/07/23 07:43:05;;;;;;;5.30;3.72;;;;;;;21.06;57.82;98865.28;5032195;28;20670;-79
2023/07/23 07:45:32;;;;;;;6.05;4.00;;;;;;;21.11;57.34;98870.94;5014584;28;20046;-79
2023/07/23 07:47:58;;;;;;;8.68;4.35;;;;;;;21.17;57.54;98864.03;5014358;28;20064;-79
2023/07/23 07:50:25;;;;;;;6.55;3.80;;;;;;;21.20;57.26;98867.19;5014609;28;20144;-78
2023/07/23 07:52:52;;;;;;;6.57;4.10;;;;;;;21.26;56.92;98862.16;5014798;28;20057;-78
2023/07/23 07:55:19;;;;;;;5.35;4.00;;;;;;;21.30;56.81;98874.97;5029932;28;20088;-79
2023/07/23 07:57:46;;;;;;;4.72;4.13;;;;;;;21.35;56.86;98863.75;5034101;28;20183;-79
2023/07/23 08:00:13;;;;;;;4.30;3.47;;;;;;;21.39;56.91;98862.38;5034157;28;20457;-78
2023/07/23 08:02:41;;;;;;;5.50;3.85;;;;;;;21.46;57.05;98868.66;5034120;28;20046;-78
2023/07/23 08:05:08;;;;;;;8.65;3.80;;;;;;;21.50;56.84;98869.13;5022086;28;20526;-79
2023/07/23 08:07:35;;;;;;;4.60;3.88;;;;;;;21.56;56.50;98863.03;5014212;28;20057;-79
2023/07/23 08:10:02;;;;;;;4.93;4.13;;;;;;;21.62;56.52;98858.81;5014183;28;20054;-79
2023/07/23 08:12:29;;;;;;;5.78;3.75;;;;;;;21.69;56.50;98864.28;5014135;28;20050;-78
2023/07/23 08:14:58;;;;;;;5.47;3.75;;;;;;;21.74;56.43;98870.78;5019302;28;20052;-78
2023/07/23 08:17:25;;;;;;;4.47;3.45;;;;;;;21.83;56.12;98862.66;5032397;28;20051;-79
2023/07/23 08:19:52;;;;;;;4.25;3.70;;;;;;;21.89;55.38;98861.06;5033670;28;20057;-79
2023/07/23 08:22:18;;;;;;;4.47;3.40;;;;;;;21.95;55.18;98861.22;5033796;28;20486;-79
2023/07/23 08:24:45;;;;;;;4.70;3.03;;;;;;;22.02;55.10;98865.81;5030907;28;20045;-78
2023/07/23 08:27:19;;;;;;;10.77;4.13;;;;;;;22.06;53.73;98859.91;5019739;28;20501;-79
2023/07/23 08:29:46;;;;;;;4.25;3.33;;;;;;;22.15;54.94;98860.63;5022716;28;20056;-78
2023/07/23 08:32:19;;;;;;;5.32;3.55;;;;;;;22.22;54.67;98872.28;5013908;28;20045;-78
2023/07/23 08:34:46;;;;;;;4.93;2.90;;;;;;;22.28;54.44;98869.88;5013909;28;20045;-79
2023/07/23 08:37:13;;;;;;;6.25;3.00;;;;;;;22.33;54.08;98870.97;5013352;28;20050;-79
2023/07/23 08:39:40;;;;;;;5.35;3.15;;;;;;;22.38;53.71;98867.72;5013575;28;20588;-79
2023/07/23 08:42:37;;;;;;;7.20;3.55;;;;;;;22.36;53.33;98873.28;5013727;28;20049;-79
2023/07/23 08:45:41;;;;;;;4.45;2.92;;;;;;;22.39;53.23;98877.47;5013543;28;20068;-78
2023/07/23 08:48:17;;;;;;;4.82;3.10;;;;;;;22.40;52.28;98876.44;5013503;28;20145;-79
2023/07/23 08:50:49;;;;;;;4.00;3.25;;;;;;;22.39;52.29;98885.50;5013492;28;20050;-79
2023/07/23 08:53:17;;;;;;;4.82;3.15;;;;;;;22.33;52.99;98889.75;5011867;28;20057;-78
2023/07/23 08:55:46;;;;;;;4.65;3.42;;;;;;;22.25;52.33;98893.34;5014471;28;20116;-78
2023/07/23 08:58:15;;;;;;;7.65;3.42;;;;;;;22.19;52.21;98893.25;5032837;28;20056;-79
2023/07/23 09:00:43;;;;;;;4.22;2.92;;;;;;;22.12;52.14;98898.53;5014333;28;20053;-78
2023/07/23 09:03:12;;;;;;;4.40;3.13;;;;;;;22.05;52.08;98900.28;5013383;28;20410;-79
2023/07/23 09:05:39;;;;;;;6.47;3.22;;;;;;;21.97;52.51;98906.53;5013149;28;20057;-79
2023/07/23 09:08:07;;;;;;;3.78;3.13;;;;;;;21.87;52.53;98922.91;5013020;28;20108;-78
2023/07/23 09:10:33;;;;;;;6.72;3.75;;;;;;;21.76;52.78;98921.50;5027038;28;20049;-78
2023/07/23 09:13:16;;;;;;;4.53;3.33;;;;;;;21.57;53.25;98918.25;5032777;28;20049;-78
2023/07/23 09:15:53;;;;;;;8.55;3.70;;;;;;;21.45;53.65;98922.38;5064661;22;20774;-81
2023/07/23 09:18:20;;;;;;;4.18;3.45;;;;;;;21.35;53.46;98922.63;4972758;28;20060;-80
2023/07/23 09:20:50;;;;;;;5.43;2.88;;;;;;;21.19;53.90;98911.00;4973534;28;20070;-80
2023/07/23 09:23:17;;;;;;;4.57;3.40;;;;;;;21.12;54.30;98914.59;4973935;28;20051;-80
2023/07/23 09:25:44;;;;;;;4.90;3.28;;;;;;;21.02;54.58;98917.47;4973665;28;20051;-80
2023/07/23 09:28:21;;;;;;;7.38;3.22;;;;;;;20.92;54.77;98925.72;4972219;28;20061;-80
2023/07/23 09:30:48;;;;;;;4.95;3.35;;;;;;;20.92;54.99;98925.72;4969497;28;20439;-80
2023/07/23 09:33:14;;;;;;;4.93;3.65;;;;;;;20.89;55.11;98926.91;4973700;28;20043;-80
2023/07/23 09:35:41;;;;;;;7.13;3.15;;;;;;;20.88;55.10;98927.09;4973572;28;20082;-80
2023/07/23 09:38:12;;;;;;;4.20;3.45;;;;;;;20.87;55.43;98928.94;4973460;28;20412;-80
2023/07/23 09:40:41;;;;;;;4.05;3.53;;;;;;;20.88;55.50;98935.94;4973337;28;20480;-80
2023/07/23 09:43:08;;;;;;;4.85;3.85;;;;;;;20.90;55.31;98936.59;4973487;28;20051;-80
2023/07/23 09:45:37;;;;;;;8.10;4.05;;;;;;;20.91;55.34;98938.28;4973177;28;20054;-80
2023/07/23 09:48:04;;;;;;;5.30;3.47;;;;;;;20.92;55.46;98931.91;4972621;28;20467;-80
2023/07/23 09:50:43;;;;;;;5.78;3.92;;;;;;;20.95;55.44;98939.59;4971982;28;20051;-80
2023/07/23 09:53:12;;;;;;;5.68;3.90;;;;;;;20.99;55.54;98925.84;4972523;28;20053;-81
2023/07/23 09:55:40;;;;;;;4.97;3.90;;;;;;;21.03;55.69;98932.53;4972833;28;20046;-80
2023/07/23 09:58:07;;;;;;;6.15;4.30;;;;;;;21.08;55.62;98922.97;4973023;28;20547;-80
2023/07/23 10:00:33;;;;;;;5.28;4.07;;;;;;;21.14;55.33;98934.81;4972894;28;20134;-81
2023/07/23 10:03:00;;;;;;;4.15;3.75;;;;;;;21.19;55.51;98934.25;4973208;28;20043;-80
2023/07/23 10:05:29;;;;;;;4.88;4.00;;;;;;;21.23;55.38;98935.56;4972756;28;20058;-80
2023/07/23 10:07:57;;;;;;;6.32;4.53;;;;;;;21.26;55.04;98942.44;4973039;28;20407;-80
2023/07/23 10:10:23;;;;;;;5.68;4.15;;;;;;;21.27;54.58;98941.41;4973060;28;20578;-80
2023/07/23 10:12:50;;;;;;;8.05;4.18;;;;;;;21.26;54.85;98937.91;4972662;28;20522;-80
2023/07/23 10:15:17;;;;;;;4.82;3.88;;;;;;;21.26;55.22;98942.44;4972789;28;20054;-81
2023/07/23 10:17:51;;;;;;;7.45;3.75;;;;;;;21.22;55.12;98942.78;4972756;28;20062;-80
2023/07/23 10:20:18;;;;;;;5.80;3.60;;;;;;;21.22;55.27;98932.06;4964700;28;20047;-81
2023/07/23 10:22:45;;;;;;;4.90;3.90;;;;;;;21.19;55.51;98929.75;4965530;28;20518;-81
2023/07/23 10:25:38;;;;;;;6.13;4.15;;;;;;;21.14;55.69;98942.84;4971179;28;20129;-80
2023/07/23 10:28:09;;;;;;;4.57;3.63;;;;;;;21.18;55.48;98941.47;4972102;28;20125;-80
2023/07/23 10:30:36;;;;;;;6.13;3.42;;;;;;;21.16;55.33;98937.31;4972847;28;20059;-81
2023/07/23 10:33:09;;;;;;;5.03;3.50;;;;;;;21.13;55.55;98951.88;4972431;28;20396;-80
2023/07/23 10:36:04;;;;;;;4.80;3.70;;;;;;;21.08;55.67;98935.50;4972555;28;20097;-80
2023/07/23 10:38:35;;;;;;;4.10;3.70;;;;;;;21.11;55.46;98940.50;4972384;28;20065;-80
2023/07/23 10:41:02;;;;;;;3.85;3.55;;;;;;;21.07;55.67;98942.72;4971459;28;20047;-80
2023/07/23 10:43:42;;;;;;;4.05;3.67;;;;;;;21.02;55.95;98938.88;4972183;28;20562;-80
2023/07/23 10:46:14;;;;;;;4.22;3.72;;;;;;;21.01;55.78;98935.38;4972393;28;20210;-80
2023/07/23 10:48:49;;;;;;;3.97;3.40;;;;;;;21.02;55.79;98941.56;4972297;28;20066;-80
2023/07/23 10:51:22;;;;;;;3.75;3.33;;;;;;;21.00;56.19;98935.56;4972471;28;20090;-80
2023/07/23 10:53:58;;;;;;;5.53;3.38;;;;;;;20.94;56.24;98940.59;4972093;28;20062;-80
2023/07/23 10:56:27;;;;;;;5.72;3.58;;;;;;;20.94;56.13;98937.09;4972181;28;20570;-80
2023/07/23 10:58:56;;;;;;;5.22;3.25;;;;;;;20.92;56.20;98944.44;4971970;28;20077;-80
2023/07/23 11:01:25;;;;;;;5.43;3.30;;;;;;;20.91;56.22;98929.41;4972059;28;20130;-80
2023/07/23 11:03:56;;;;;;;3.50;3.20;;;;;;;20.89;56.54;98947.50;4972044;28;20078;-80
2023/07/23 11:06:33;;;;;;;3.22;2.63;;;;;;;20.85;56.88;98936.25;4971818;28;20054;-80
2023/07/23 11:09:08;;;;;;;3.13;2.90;;;;;;;20.86;57.12;98943.28;4971983;28;20117;-80
2023/07/23 11:11:41;;;;;;;3.53;3.10;;;;;;;20.88;57.18;98945.81;4971941;28;20051;-80
2023/07/23 11:14:18;;;;;;;3.15;2.85;;;;;;;20.83;57.54;98944.44;4971816;28;20047;-80
2023/07/23 11:17:10;;;;;;;5.10;2.88;;;;;;;20.82;57.52;98936.63;4970693;28;20082;-80
2023/07/23 11:19:37;;;;;;;5.60;3.10;;;;;;;20.85;57.35;98944.28;4971870;28;20142;-80
2023/07/23 11:22:04;;;;;;;6.10;3.20;;;;;;;20.83;57.60;98951.66;4971902;28;20051;-80
2023/07/23 11:24:32;;;;;;;3.13;2.78;;;;;;;20.81;57.59;98951.00;4971510;28;20054;-80
2023/07/23 11:27:01;;;;;;;2.85;2.35;;;;;;;20.78;58.01;98944.16;4970103;28;20130;-80
2023/07/23 11:29:28;;;;;;;2.90;2.65;;;;;;;20.77;58.10;98944.31;4971843;28;20058;-80
2023/07/23 11:32:01;;;;;;;2.45;2.25;;;;;;;20.73;58.04;98956.38;4970603;28;20581;-80
2023/07/23 11:34:27;;;;;;;2.25;2.08;;;;;;;20.70;58.36;98960.22;4970262;28;20051;-81
2023/07/23 11:36:55;;;;;;;2.90;2.60;;;;;;;20.67;58.87;98953.38;4971300;28;20051;-80